メインページ
METAR-TAF:

METAR-TAF

空港 :

フェアバンクス国際空港

フェアバンクス, アラスカ州, アメリカ合衆国

緯度: 64-48-14N, 経度: 147-52-34W, 海抜: 132m

現時点の気象観測

当レポートは44分前の08:53(UTC)に作成
無風
気温 10°C
湿度 62%
気圧 1006 hPa
視程: 16.1km
高度9000ftの雲はほとんどない
高度25000ftの千切れ雲あり

METAR: PAFA 200853Z COR 00000KT 10SM FEW090 BKN250 10/03 A2970 RMK AO2 SLP062 T01000033 401780078 58004

時間: 01:37 (09:37 UTC)

予報

当レポートは4時間3分前の05:34(UTC)に作成
予報は20日の 06時(UTC)から 21日の 12時(UTC)まで有効
変向風 4kt
視程: 10km
高度5000ftの雲は散在している
高度12000ftの千切れ雲あり
高度20000ftの千切れ雲あり

TAF: PAFA 200534Z 2006/2112 VRB04KT P6SM SCT050 BKN120 BKN200

4,000以上の空港の気象観測と天気予報(METAR報とTAF報)

利用可能な観測所は地図上に黄色い丸と赤い丸で示す。

丸の上にカーソルを重ねると観測所名を参照できる。

次にクリックすると気象観測と天気予報を参照できる。

マップの切り替え:黒色「×」印の緑ボタンをクリックして拡大、「-」印の緑ボタンをクリックして縮小、緑色の三角印をクリックして隣りの地図に切り替え


METAR-TAF: